Time;durP1;ratioP1;P1;durP2;ratioP2;P2;SDS_P1;SDS_P2;PMS_P1;PMS_P2;Temp;Humidity;BMP_temperature;BMP_pressure;BME280_temperature;BME280_humidity;BME280_pressure;Samples;Min_cycle;Max_cycle;Signal;HPM_P1;HPM_P2
2022/02/20 00:01:33;;;;;;;6.83;2.03;;;;;;;;;;5057608;28;20455;-81
2022/02/20 00:04:02;;;;;;;9.70;2.67;;;;;;;;;;5061436;28;20490;-80
2022/02/20 00:06:29;;;;;;;13.87;5.50;;;;;;;;;;5062080;28;20482;-81
2022/02/20 00:08:58;;;;;;;9.07;2.87;;;;;;;;;;5061444;28;20458;-81
2022/02/20 00:11:25;;;;;;;15.23;3.37;;;;;;;;;;5061680;28;20534;-82
2022/02/20 00:13:53;;;;;;;12.17;3.57;;;;;;;;;;5059812;28;20461;-79
2022/02/20 00:16:21;;;;;;;12.00;4.10;;;;;;;;;;5060710;28;20473;-79
2022/02/20 00:18:49;;;;;;;12.63;4.53;;;;;;;;;;5060120;28;20494;-81
2022/02/20 00:21:16;;;;;;;8.93;6.43;;;;;;;;;;5059613;28;20451;-81
2022/02/20 00:23:43;;;;;;;17.50;7.00;;;;;;;;;;5056954;28;20498;-82
2022/02/20 00:26:10;;;;;;;17.27;7.20;;;;;;;;;;5059606;28;20892;-79
2022/02/20 00:28:38;;;;;;;10.63;5.20;;;;;;;;;;5058918;28;20464;-82
2022/02/20 00:31:06;;;;;;;10.63;3.73;;;;;;;;;;5059177;28;20528;-81
2022/02/20 00:33:34;;;;;;;9.00;4.30;;;;;;;;;;5058446;28;20504;-79
2022/02/20 00:36:01;;;;;;;19.53;3.93;;;;;;;;;;5059403;28;20481;-80
2022/02/20 00:38:29;;;;;;;6.07;3.10;;;;;;;;;;5059729;28;20482;-80
2022/02/20 00:40:56;;;;;;;8.13;2.60;;;;;;;;;;5046302;28;20916;-79
2022/02/20 00:43:23;;;;;;;8.17;2.70;;;;;;;;;;5057451;28;20481;-78
2022/02/20 00:45:50;;;;;;;6.50;2.40;;;;;;;;;;5057779;28;20470;-80
2022/02/20 00:48:20;;;;;;;5.40;2.00;;;;;;;;;;5053241;28;20461;-79
2022/02/20 00:50:49;;;;;;;10.00;2.10;;;;;;;;;;5057601;28;20446;-78
2022/02/20 00:53:16;;;;;;;8.97;2.70;;;;;;;;;;5050679;28;20463;-80
2022/02/20 00:55:43;;;;;;;5.67;1.90;;;;;;;;;;5054550;28;20482;-79
2022/02/20 00:58:10;;;;;;;4.63;2.00;;;;;;;;;;5058936;28;20479;-78
2022/02/20 01:00:38;;;;;;;4.67;1.73;;;;;;;;;;5057495;28;20457;-78
2022/02/20 01:03:06;;;;;;;8.73;2.20;;;;;;;;;;5057351;28;20454;-78
2022/02/20 01:05:33;;;;;;;2.37;0.83;;;;;;;;;;5056356;28;20458;-77
2022/02/20 01:08:01;;;;;;;4.73;1.77;;;;;;;;;;5053275;28;20451;-78
2022/02/20 01:10:29;;;;;;;5.33;1.63;;;;;;;;;;5057860;28;20986;-79
2022/02/20 01:12:56;;;;;;;5.90;1.20;;;;;;;;;;5056775;28;20462;-78
2022/02/20 01:15:23;;;;;;;7.17;1.60;;;;;;;;;;5058681;28;20458;-80
2022/02/20 01:17:50;;;;;;;4.50;1.87;;;;;;;;;;5059209;28;21017;-79
2022/02/20 01:20:18;;;;;;;7.87;2.10;;;;;;;;;;5058965;28;20882;-79
2022/02/20 01:22:45;;;;;;;4.90;2.13;;;;;;;;;;5059060;28;20452;-79
2022/02/20 01:25:13;;;;;;;6.23;1.70;;;;;;;;;;5057705;28;20997;-78
2022/02/20 01:27:40;;;;;;;5.73;1.83;;;;;;;;;;5058249;28;20451;-78
2022/02/20 01:30:08;;;;;;;5.83;2.20;;;;;;;;;;5057893;28;20468;-79
2022/02/20 01:32:35;;;;;;;18.17;3.27;;;;;;;;;;5056749;28;20462;-79
2022/02/20 01:35:02;;;;;;;6.90;1.93;;;;;;;;;;5056054;28;20966;-77
2022/02/20 01:37:29;;;;;;;3.60;1.80;;;;;;;;;;5058648;28;20490;-78
2022/02/20 01:39:56;;;;;;;6.77;2.10;;;;;;;;;;5057311;28;20577;-80
2022/02/20 01:42:25;;;;;;;5.40;1.57;;;;;;;;;;5057763;28;20467;-78
2022/02/20 01:44:52;;;;;;;8.87;1.60;;;;;;;;;;5055821;28;20454;-79
2022/02/20 01:47:19;;;;;;;4.80;1.80;;;;;;;;;;5057923;28;20494;-79
2022/02/20 01:49:46;;;;;;;5.30;1.90;;;;;;;;;;5056810;28;20454;-78
2022/02/20 01:52:14;;;;;;;6.40;1.67;;;;;;;;;;5057567;28;20454;-79
2022/02/20 01:54:41;;;;;;;7.33;1.73;;;;;;;;;;5056857;28;20465;-78
2022/02/20 01:57:09;;;;;;;7.77;2.03;;;;;;;;;;5057056;28;20470;-79
2022/02/20 01:59:38;;;;;;;3.00;1.10;;;;;;;;;;5057181;28;20458;-79
2022/02/20 02:02:05;;;;;;;6.63;1.70;;;;;;;;;;5057644;28;20481;-78
2022/02/20 02:04:32;;;;;;;3.47;1.53;;;;;;;;;;5056644;28;20455;-79
2022/02/20 02:07:00;;;;;;;6.57;1.90;;;;;;;;;;5057678;28;20474;-79
2022/02/20 02:09:27;;;;;;;7.80;2.50;;;;;;;;;;5042498;28;20439;-80
2022/02/20 02:11:54;;;;;;;6.33;1.87;;;;;;;;;;5058493;28;20459;-80
2022/02/20 02:14:21;;;;;;;5.07;1.83;;;;;;;;;;5055773;28;20461;-79
2022/02/20 02:16:49;;;;;;;4.80;1.40;;;;;;;;;;5056603;28;20470;-78
2022/02/20 02:19:16;;;;;;;5.40;2.13;;;;;;;;;;5057232;28;20864;-80
2022/02/20 02:21:44;;;;;;;7.33;2.40;;;;;;;;;;5056890;28;20988;-79
2022/02/20 02:24:12;;;;;;;10.83;3.20;;;;;;;;;;5055891;28;20521;-79
2022/02/20 02:26:39;;;;;;;3.20;1.77;;;;;;;;;;5056164;28;20484;-79
2022/02/20 02:29:06;;;;;;;5.77;2.10;;;;;;;;;;5056812;28;20447;-78
2022/02/20 02:31:34;;;;;;;5.90;2.37;;;;;;;;;;5056403;28;20454;-78
2022/02/20 02:34:01;;;;;;;4.10;1.90;;;;;;;;;;5056535;28;20458;-80
2022/02/20 02:36:28;;;;;;;8.47;2.43;;;;;;;;;;5055731;28;21146;-79
2022/02/20 02:38:55;;;;;;;6.97;2.10;;;;;;;;;;5057174;28;20544;-79
2022/02/20 02:41:23;;;;;;;5.20;2.47;;;;;;;;;;5057105;28;20460;-79
2022/02/20 02:43:51;;;;;;;4.47;2.03;;;;;;;;;;5056101;28;20445;-79
2022/02/20 02:46:19;;;;;;;5.17;2.30;;;;;;;;;;5055499;28;20487;-80
2022/02/20 02:48:48;;;;;;;5.10;1.77;;;;;;;;;;5057951;28;20454;-80
2022/02/20 02:51:16;;;;;;;4.33;1.80;;;;;;;;;;5058253;28;20479;-78
2022/02/20 02:53:43;;;;;;;5.07;2.07;;;;;;;;;;5065609;28;20459;-77
2022/02/20 02:56:10;;;;;;;3.57;1.53;;;;;;;;;;5065539;28;20555;-78
2022/02/20 02:58:38;;;;;;;6.07;1.93;;;;;;;;;;5062855;28;20616;-80
2022/02/20 03:01:06;;;;;;;4.27;1.40;;;;;;;;;;5055964;28;20455;-80
2022/02/20 03:03:33;;;;;;;4.07;3.53;;;;;;;;;;5054868;28;20549;-80
2022/02/20 03:06:00;;;;;;;10.30;1.97;;;;;;;;;;5041742;28;20939;-80
2022/02/20 03:08:28;;;;;;;6.37;2.17;;;;;;;;;;5056250;28;20493;-81
2022/02/20 03:10:56;;;;;;;6.57;2.47;;;;;;;;;;5057567;28;20525;-81
2022/02/20 03:13:23;;;;;;;4.70;2.43;;;;;;;;;;5053740;28;20943;-81
2022/02/20 03:15:52;;;;;;;5.83;2.73;;;;;;;;;;5056722;28;20498;-80
2022/02/20 03:18:19;;;;;;;4.73;2.50;;;;;;;;;;5056605;28;20492;-81
2022/02/20 03:20:46;;;;;;;5.40;2.77;;;;;;;;;;5056471;28;20450;-80
2022/02/20 03:23:13;;;;;;;9.57;3.23;;;;;;;;;;5055845;28;20574;-81
2022/02/20 03:25:40;;;;;;;8.97;3.07;;;;;;;;;;5056876;28;20470;-80
2022/02/20 03:28:08;;;;;;;6.80;3.00;;;;;;;;;;5056938;28;20455;-81
2022/02/20 03:30:35;;;;;;;8.70;3.67;;;;;;;;;;5057604;28;20484;-80
2022/02/20 03:33:03;;;;;;;4.97;2.57;;;;;;;;;;5055204;28;20455;-81
2022/02/20 03:35:30;;;;;;;5.17;2.87;;;;;;;;;;5056825;28;20462;-81
2022/02/20 03:37:58;;;;;;;7.83;3.37;;;;;;;;;;5056946;28;20482;-81
2022/02/20 03:40:25;;;;;;;4.40;2.63;;;;;;;;;;5057089;28;20475;-82
2022/02/20 03:42:52;;;;;;;6.13;2.93;;;;;;;;;;5055621;28;20456;-80
2022/02/20 03:45:19;;;;;;;3.50;2.27;;;;;;;;;;5054993;28;20893;-80
2022/02/20 03:47:46;;;;;;;3.20;2.00;;;;;;;;;;5046892;28;20465;-81
2022/02/20 03:50:15;;;;;;;6.63;2.80;;;;;;;;;;5057481;28;20454;-81
2022/02/20 03:52:42;;;;;;;8.80;2.30;;;;;;;;;;5058609;28;20460;-81
2022/02/20 03:55:10;;;;;;;8.13;2.13;;;;;;;;;;5057145;28;20856;-81
2022/02/20 03:57:38;;;;;;;3.17;2.33;;;;;;;;;;5059102;28;20588;-82
2022/02/20 04:00:10;;;;;;;8.00;2.40;;;;;;;;;;5062464;28;20454;-81
2022/02/20 04:02:37;;;;;;;3.77;2.00;;;;;;;;;;5061183;28;20448;-82
2022/02/20 04:05:05;;;;;;;2.90;1.90;;;;;;;;;;5061940;28;20477;-82
2022/02/20 04:07:33;;;;;;;5.50;2.70;;;;;;;;;;5061442;28;20489;-82
2022/02/20 04:10:00;;;;;;;9.77;3.20;;;;;;;;;;5061078;28;20443;-81
2022/02/20 04:12:29;;;;;;;4.80;3.30;;;;;;;;;;5058776;28;20459;-81
2022/02/20 04:14:56;;;;;;;5.30;3.20;;;;;;;;;;5059350;28;20476;-82
2022/02/20 04:17:24;;;;;;;6.33;3.50;;;;;;;;;;5060417;28;20474;-82
2022/02/20 04:19:52;;;;;;;6.50;3.47;;;;;;;;;;5059666;28;20882;-82
2022/02/20 04:22:19;;;;;;;11.63;3.10;;;;;;;;;;5060650;28;20455;-81
2022/02/20 04:24:48;;;;;;;5.90;3.27;;;;;;;;;;5059335;28;20455;-83
2022/02/20 04:27:15;;;;;;;3.33;2.50;;;;;;;;;;5059306;28;20475;-82
2022/02/20 04:29:42;;;;;;;8.37;3.20;;;;;;;;;;5059572;28;20822;-82
2022/02/20 04:32:09;;;;;;;5.50;2.33;;;;;;;;;;5060366;28;20473;-81
2022/02/20 04:34:36;;;;;;;4.93;1.90;;;;;;;;;;5064242;28;20458;-82
2022/02/20 04:37:04;;;;;;;5.70;2.33;;;;;;;;;;5059621;28;20479;-81
2022/02/20 04:39:31;;;;;;;5.83;2.00;;;;;;;;;;5059751;28;20495;-82
2022/02/20 04:41:59;;;;;;;5.00;1.70;;;;;;;;;;5059913;28;20459;-82
2022/02/20 04:44:27;;;;;;;3.23;1.63;;;;;;;;;;5058719;28;20985;-82
2022/02/20 04:46:54;;;;;;;5.10;1.70;;;;;;;;;;5059546;28;20528;-82
2022/02/20 04:49:21;;;;;;;4.83;1.70;;;;;;;;;;5059310;28;20462;-82
2022/02/20 04:51:48;;;;;;;4.40;2.00;;;;;;;;;;5059119;28;20457;-82
2022/02/20 04:54:16;;;;;;;12.10;2.30;;;;;;;;;;5059111;28;20457;-83
2022/02/20 04:56:43;;;;;;;5.47;1.93;;;;;;;;;;5059805;28;20478;-82
2022/02/20 04:59:12;;;;;;;4.60;2.10;;;;;;;;;;5059903;28;20484;-80
2022/02/20 05:01:39;;;;;;;6.93;2.17;;;;;;;;;;5059782;28;20547;-83
2022/02/20 05:04:07;;;;;;;7.50;2.87;;;;;;;;;;5059360;28;20460;-82
2022/02/20 05:06:34;;;;;;;5.83;3.00;;;;;;;;;;5059840;28;20554;-81
2022/02/20 05:09:01;;;;;;;8.83;2.57;;;;;;;;;;5059202;28;20457;-83
2022/02/20 05:11:28;;;;;;;6.30;2.63;;;;;;;;;;5060510;28;20485;-83
2022/02/20 05:13:58;;;;;;;7.80;2.50;;;;;;;;;;5058559;28;20838;-81
2022/02/20 05:16:27;;;;;;;6.57;2.77;;;;;;;;;;5039989;28;20567;-83
2022/02/20 05:18:54;;;;;;;3.57;2.30;;;;;;;;;;5039555;28;20483;-82
2022/02/20 05:21:21;;;;;;;4.50;2.27;;;;;;;;;;5039631;28;20464;-82
2022/02/20 05:23:48;;;;;;;9.07;2.53;;;;;;;;;;5045935;28;20451;-82
2022/02/20 05:26:15;;;;;;;6.47;2.10;;;;;;;;;;5058852;28;20488;-81
2022/02/20 05:28:43;;;;;;;7.20;2.27;;;;;;;;;;5058835;28;20468;-83
2022/02/20 05:31:11;;;;;;;13.10;2.50;;;;;;;;;;5059022;28;20453;-82
2022/02/20 05:33:40;;;;;;;4.43;1.80;;;;;;;;;;5057884;28;20482;-83
2022/02/20 05:36:09;;;;;;;3.60;2.23;;;;;;;;;;5059347;28;20473;-82
2022/02/20 05:38:36;;;;;;;6.67;2.30;;;;;;;;;;5058702;28;20914;-81
2022/02/20 05:41:03;;;;;;;2.80;1.53;;;;;;;;;;5039076;28;20467;-82
2022/02/20 05:43:30;;;;;;;5.00;2.40;;;;;;;;;;5041114;28;20455;-83
2022/02/20 05:45:57;;;;;;;7.30;2.60;;;;;;;;;;5058766;28;20994;-81
2022/02/20 05:48:24;;;;;;;5.23;2.17;;;;;;;;;;5058443;28;20451;-80
2022/02/20 05:50:53;;;;;;;6.13;2.70;;;;;;;;;;5059318;28;20962;-81
2022/02/20 05:53:20;;;;;;;6.93;2.40;;;;;;;;;;5056801;28;20521;-80
2022/02/20 05:55:47;;;;;;;5.27;2.30;;;;;;;;;;5059416;28;20473;-81
2022/02/20 05:58:16;;;;;;;8.33;3.17;;;;;;;;;;5059280;28;20541;-80
2022/02/20 06:00:43;;;;;;;5.67;2.87;;;;;;;;;;5058758;28;20451;-81
2022/02/20 06:03:10;;;;;;;9.67;3.17;;;;;;;;;;5058981;28;20467;-81
2022/02/20 06:05:38;;;;;;;10.20;2.63;;;;;;;;;;5059061;28;20467;-83
2022/02/20 06:08:09;;;;;;;5.10;2.80;;;;;;;;;;5057211;28;20467;-83
2022/02/20 06:10:36;;;;;;;6.40;3.17;;;;;;;;;;5057384;28;20455;-83
2022/02/20 06:13:03;;;;;;;8.23;3.40;;;;;;;;;;5056464;28;20458;-82
2022/02/20 06:15:31;;;;;;;11.83;4.00;;;;;;;;;;5056642;28;20453;-83
2022/02/20 06:17:58;;;;;;;8.83;3.60;;;;;;;;;;5057397;28;20447;-82
2022/02/20 06:20:25;;;;;;;10.40;3.67;;;;;;;;;;5057608;28;20582;-83
2022/02/20 06:22:53;;;;;;;6.67;3.20;;;;;;;;;;5057535;28;20460;-82
2022/02/20 06:25:22;;;;;;;8.13;3.50;;;;;;;;;;5056444;28;20481;-83
2022/02/20 06:27:49;;;;;;;44.37;21.63;;;;;;;;;;5056375;28;20549;-83
2022/02/20 06:30:16;;;;;;;12.73;8.00;;;;;;;;;;5055234;28;20537;-84
2022/02/20 06:32:43;;;;;;;11.10;5.27;;;;;;;;;;5056951;28;20458;-84
2022/02/20 06:35:10;;;;;;;8.50;4.00;;;;;;;;;;5055870;28;20448;-83
2022/02/20 06:37:37;;;;;;;16.23;4.97;;;;;;;;;;5057522;28;20478;-84
2022/02/20 06:40:04;;;;;;;11.63;4.77;;;;;;;;;;5056623;28;20487;-83
2022/02/20 06:42:33;;;;;;;8.23;4.87;;;;;;;;;;5057458;28;20476;-84
2022/02/20 06:45:00;;;;;;;10.40;6.03;;;;;;;;;;5056643;28;20532;-84
2022/02/20 06:47:27;;;;;;;12.40;5.20;;;;;;;;;;5057504;28;20478;-84
2022/02/20 06:49:54;;;;;;;10.40;5.30;;;;;;;;;;5057305;28;20444;-83
2022/02/20 06:52:21;;;;;;;8.70;5.53;;;;;;;;;;5057785;28;20465;-83
2022/02/20 06:54:48;;;;;;;10.00;5.03;;;;;;;;;;5056651;28;20459;-83
2022/02/20 06:57:16;;;;;;;14.70;5.80;;;;;;;;;;5059924;28;20504;-83
2022/02/20 06:59:45;;;;;;;16.40;4.97;;;;;;;;;;5057094;28;20493;-83
2022/02/20 07:02:12;;;;;;;11.93;5.30;;;;;;;;;;5057149;28;20451;-83
2022/02/20 07:04:39;;;;;;;15.60;6.10;;;;;;;;;;5056599;28;20456;-82
2022/02/20 07:07:06;;;;;;;8.03;4.43;;;;;;;;;;5056479;28;20471;-83
2022/02/20 07:09:33;;;;;;;16.83;4.73;;;;;;;;;;5056378;28;20443;-82
2022/02/20 07:12:00;;;;;;;12.30;5.17;;;;;;;;;;5056336;28;20453;-83
2022/02/20 07:14:27;;;;;;;12.97;4.97;;;;;;;;;;5054725;28;20987;-82
2022/02/20 07:16:56;;;;;;;13.37;5.17;;;;;;;;;;5055805;28;20510;-82
2022/02/20 07:19:23;;;;;;;15.70;6.50;;;;;;;;;;5055164;28;20577;-82
2022/02/20 07:21:50;;;;;;;11.33;4.50;;;;;;;;;;5056602;28;20444;-83
2022/02/20 07:24:19;;;;;;;10.37;5.80;;;;;;;;;;5056336;28;20465;-83
2022/02/20 07:26:47;;;;;;;16.97;5.17;;;;;;;;;;5058045;28;20476;-82
2022/02/20 07:29:14;;;;;;;28.03;5.57;;;;;;;;;;5058515;28;20462;-83
2022/02/20 07:31:41;;;;;;;14.00;5.40;;;;;;;;;;5057435;28;20459;-83
2022/02/20 07:34:10;;;;;;;18.30;7.00;;;;;;;;;;5059913;28;20482;-83
2022/02/20 07:36:41;;;;;;;13.87;5.00;;;;;;;;;;5061205;28;20538;-82
2022/02/20 07:39:08;;;;;;;13.77;6.17;;;;;;;;;;5061066;28;20470;-83
2022/02/20 07:41:35;;;;;;;12.33;4.80;;;;;;;;;;5060450;28;20446;-82
2022/02/20 07:44:02;;;;;;;21.37;6.93;;;;;;;;;;5060550;28;20533;-83
2022/02/20 07:46:29;;;;;;;18.53;5.10;;;;;;;;;;5062493;28;20472;-84
2022/02/20 07:48:57;;;;;;;21.00;4.67;;;;;;;;;;5060252;28;20444;-83
2022/02/20 07:51:26;;;;;;;17.47;4.57;;;;;;;;;;5058285;28;20458;-83
2022/02/20 07:53:53;;;;;;;11.90;4.30;;;;;;;;;;5064497;28;20444;-83
2022/02/20 07:56:20;;;;;;;7.33;3.33;;;;;;;;;;5051151;28;20466;-83
2022/02/20 07:58:51;;;;;;;15.03;4.17;;;;;;;;;;5058869;28;20481;-82
2022/02/20 08:01:20;;;;;;;13.33;4.30;;;;;;;;;;5052495;28;20475;-82
2022/02/20 08:03:49;;;;;;;8.67;3.17;;;;;;;;;;5056016;28;20455;-83
2022/02/20 08:06:16;;;;;;;14.17;4.03;;;;;;;;;;5055685;28;20517;-84
2022/02/20 08:08:45;;;;;;;12.37;3.53;;;;;;;;;;5055762;28;20877;-83
2022/02/20 08:11:12;;;;;;;10.20;3.70;;;;;;;;;;5058590;28;20447;-84
2022/02/20 08:13:39;;;;;;;9.07;3.33;;;;;;;;;;5058841;28;20457;-82
2022/02/20 08:16:07;;;;;;;6.37;3.53;;;;;;;;;;5058150;28;20498;-82
2022/02/20 08:18:34;;;;;;;7.70;2.77;;;;;;;;;;5057693;28;20463;-82
2022/02/20 08:21:01;;;;;;;6.67;3.23;;;;;;;;;;5058951;28;20491;-81
2022/02/20 08:23:28;;;;;;;9.20;3.43;;;;;;;;;;5057730;28;20456;-83
2022/02/20 08:25:57;;;;;;;8.67;3.00;;;;;;;;;;5058572;28;21006;-83
2022/02/20 08:28:24;;;;;;;7.57;3.50;;;;;;;;;;5056880;28;20457;-81
2022/02/20 08:30:51;;;;;;;8.93;3.17;;;;;;;;;;5058580;28;20532;-82
2022/02/20 08:33:18;;;;;;;11.83;3.37;;;;;;;;;;5057219;28;20462;-82
2022/02/20 08:35:45;;;;;;;12.87;3.57;;;;;;;;;;5055799;28;20472;-81
2022/02/20 08:38:14;;;;;;;13.07;3.40;;;;;;;;;;5052840;28;20520;-82
2022/02/20 08:40:43;;;;;;;11.23;3.27;;;;;;;;;;5062299;28;20483;-83
2022/02/20 08:43:11;;;;;;;7.80;3.97;;;;;;;;;;5061860;28;20463;-82
2022/02/20 08:45:38;;;;;;;8.10;3.30;;;;;;;;;;5062407;28;20480;-82
2022/02/20 08:48:06;;;;;;;5.03;3.20;;;;;;;;;;5060156;28;20835;-83
2022/02/20 08:50:33;;;;;;;7.43;3.13;;;;;;;;;;5059404;28;20479;-82
2022/02/20 08:53:00;;;;;;;7.90;3.47;;;;;;;;;;5057849;28;20462;-82
2022/02/20 08:55:28;;;;;;;5.30;2.90;;;;;;;;;;5058258;28;20458;-82
2022/02/20 08:57:55;;;;;;;9.27;3.00;;;;;;;;;;5058973;28;20448;-82
2022/02/20 09:00:24;;;;;;;9.77;3.30;;;;;;;;;;5058520;28;20522;-82
2022/02/20 09:02:51;;;;;;;8.60;3.70;;;;;;;;;;5058005;28;20461;-83
2022/02/20 09:05:18;;;;;;;5.40;3.10;;;;;;;;;;5053944;28;20972;-82
2022/02/20 09:07:45;;;;;;;9.77;3.53;;;;;;;;;;5061935;28;20449;-81
2022/02/20 09:10:13;;;;;;;7.30;3.00;;;;;;;;;;5059084;28;20455;-83
2022/02/20 09:12:40;;;;;;;7.43;1.90;;;;;;;;;;5052000;28;20452;-81
2022/02/20 09:15:11;;;;;;;7.67;2.40;;;;;;;;;;5050794;28;20548;-82
2022/02/20 09:17:41;;;;;;;5.57;2.30;;;;;;;;;;5054961;28;20468;-84
2022/02/20 09:20:11;;;;;;;8.57;2.47;;;;;;;;;;5054959;28;20546;-84
2022/02/20 09:22:41;;;;;;;8.97;2.43;;;;;;;;;;5055731;28;20502;-81
2022/02/20 09:25:09;;;;;;;5.93;2.07;;;;;;;;;;5049740;28;20466;-81
2022/02/20 09:27:36;;;;;;;7.87;2.20;;;;;;;;;;5058413;28;20542;-84
2022/02/20 09:30:03;;;;;;;9.07;2.87;;;;;;;;;;5076880;28;20964;-84
2022/02/20 09:32:30;;;;;;;8.30;1.90;;;;;;;;;;5076665;28;20526;-83
2022/02/20 09:35:02;;;;;;;7.17;1.93;;;;;;;;;;5060139;28;20444;-81
2022/02/20 09:37:32;;;;;;;6.60;2.50;;;;;;;;;;5055536;28;20492;-83
2022/02/20 09:40:02;;;;;;;5.00;1.97;;;;;;;;;;5064303;28;20481;-84
2022/02/20 09:42:29;;;;;;;11.87;2.20;;;;;;;;;;5054399;28;20898;-83
2022/02/20 09:45:02;;;;;;;5.93;1.93;;;;;;;;;;5051027;28;20463;-83
2022/02/20 09:47:30;;;;;;;4.80;1.90;;;;;;;;;;5050784;28;20516;-83
2022/02/20 09:50:00;;;;;;;10.93;3.03;;;;;;;;;;5059134;28;20450;-82
2022/02/20 09:52:27;;;;;;;6.53;2.67;;;;;;;;;;5054972;28;20538;-81
2022/02/20 09:54:54;;;;;;;5.33;3.20;;;;;;;;;;5069586;28;20448;-82
2022/02/20 09:57:21;;;;;;;4.13;1.93;;;;;;;;;;5065968;28;20475;-81
2022/02/20 09:59:52;;;;;;;7.23;2.60;;;;;;;;;;5057418;28;20467;-81
2022/02/20 10:02:20;;;;;;;16.70;7.13;;;;;;;;;;5070481;28;20444;-83
2022/02/20 10:04:48;;;;;;;6.07;2.53;;;;;;;;;;5065248;28;20519;-82
2022/02/20 10:07:33;;;;;;;8.50;2.63;;;;;;;;;;5060798;28;20479;-83
2022/02/20 10:10:00;;;;;;;4.70;2.40;;;;;;;;;;5065000;28;20468;-81
2022/02/20 10:12:28;;;;;;;5.90;2.47;;;;;;;;;;5058193;28;20453;-83
2022/02/20 10:15:06;;;;;;;7.17;3.07;;;;;;;;;;5062805;28;20483;-85
2022/02/20 10:17:33;;;;;;;5.67;2.20;;;;;;;;;;5061266;28;20999;-83
2022/02/20 10:20:01;;;;;;;6.93;2.80;;;;;;;;;;5067191;28;20577;-83
2022/02/20 10:22:38;;;;;;;7.83;2.47;;;;;;;;;;5055208;28;20812;-82
2022/02/20 10:25:07;;;;;;;11.23;2.90;;;;;;;;;;5060900;28;20533;-83
2022/02/20 10:27:34;;;;;;;6.27;2.07;;;;;;;;;;5063662;28;20546;-82
2022/02/20 10:30:10;;;;;;;6.50;2.10;;;;;;;;;;5062553;28;20446;-83
2022/02/20 10:32:44;;;;;;;5.40;2.00;;;;;;;;;;5064074;28;20447;-83
2022/02/20 10:35:12;;;;;;;3.40;1.90;;;;;;;;;;5058962;28;20478;-82
2022/02/20 10:37:41;;;;;;;5.00;1.70;;;;;;;;;;5063411;28;20550;-85
2022/02/20 10:40:25;;;;;;;4.67;2.10;;;;;;;;;;5070938;28;20475;-83
2022/02/20 10:42:54;;;;;;;7.20;1.83;;;;;;;;;;5069168;28;20815;-83
2022/02/20 10:45:28;;;;;;;6.87;1.80;;;;;;;;;;5052609;28;20523;-84
2022/02/20 10:47:56;;;;;;;5.60;1.80;;;;;;;;;;5061339;28;20499;-83
2022/02/20 10:50:24;;;;;;;4.13;1.40;;;;;;;;;;5060769;28;20452;-81
2022/02/20 10:53:09;;;;;;;4.33;1.97;;;;;;;;;;5062459;28;20674;-82
2022/02/20 10:55:40;;;;;;;5.00;1.50;;;;;;;;;;5061244;28;20444;-85
2022/02/20 10:58:11;;;;;;;5.37;2.00;;;;;;;;;;5064142;28;20867;-83
2022/02/20 11:00:46;;;;;;;5.77;1.37;;;;;;;;;;5062541;28;20479;-83
2022/02/20 11:03:13;;;;;;;8.77;2.30;;;;;;;;;;5066625;28;20440;-84
2022/02/20 11:05:40;;;;;;;6.10;2.00;;;;;;;;;;5068473;28;20856;-82
2022/02/20 11:08:09;;;;;;;3.37;2.00;;;;;;;;;;5066917;28;20811;-83
2022/02/20 11:10:41;;;;;;;3.53;2.30;;;;;;;;;;5060410;28;20463;-81
2022/02/20 11:13:09;;;;;;;6.70;2.50;;;;;;;;;;5069535;28;20478;-81
2022/02/20 11:15:36;;;;;;;7.30;2.40;;;;;;;;;;5055310;28;20539;-82
2022/02/20 11:18:08;;;;;;;10.30;3.20;;;;;;;;;;5060634;28;20489;-81
2022/02/20 11:20:36;;;;;;;6.73;2.17;;;;;;;;;;5054259;28;20567;-83
2022/02/20 11:23:04;;;;;;;10.40;2.33;;;;;;;;;;5053218;28;20452;-83
2022/02/20 11:25:34;;;;;;;8.70;2.60;;;;;;;;;;5055472;28;20453;-81
2022/02/20 11:28:02;;;;;;;9.20;2.50;;;;;;;;;;5058633;28;20568;-81
2022/02/20 11:30:29;;;;;;;8.83;2.80;;;;;;;;;;5056716;28;20842;-82
2022/02/20 11:32:57;;;;;;;5.47;2.07;;;;;;;;;;5060868;28;20975;-81
2022/02/20 11:35:24;;;;;;;15.10;2.70;;;;;;;;;;5055164;28;20461;-81
2022/02/20 11:37:52;;;;;;;6.03;2.33;;;;;;;;;;5057693;28;20512;-83
2022/02/20 11:40:21;;;;;;;8.87;2.30;;;;;;;;;;5058182;28;20454;-81
2022/02/20 11:43:11;;;;;;;8.57;1.80;;;;;;;;;;5059842;28;20462;-83
2022/02/20 11:46:08;;;;;;;4.77;1.90;;;;;;;;;;5047684;28;20527;-82
2022/02/20 11:48:35;;;;;;;8.40;1.93;;;;;;;;;;5051128;28;20449;-84
2022/02/20 11:51:17;;;;;;;6.80;2.20;;;;;;;;;;5054846;28;20474;-82
2022/02/20 11:53:45;;;;;;;9.57;3.10;;;;;;;;;;5049414;28;20457;-82
2022/02/20 11:56:13;;;;;;;6.07;2.57;;;;;;;;;;5055590;28;20534;-81
2022/02/20 11:58:42;;;;;;;6.90;2.50;;;;;;;;;;5049663;28;20465;-81
2022/02/20 12:01:12;;;;;;;6.00;2.10;;;;;;;;;;5053626;28;20515;-82
2022/02/20 12:03:58;;;;;;;7.30;1.97;;;;;;;;;;5055554;28;20624;-83
2022/02/20 12:06:26;;;;;;;12.17;2.80;;;;;;;;;;5055513;28;20980;-82
2022/02/20 12:08:57;;;;;;;9.70;2.70;;;;;;;;;;5053727;28;20549;-82
2022/02/20 12:11:25;;;;;;;6.93;2.03;;;;;;;;;;5056270;28;20457;-83
2022/02/20 12:13:53;;;;;;;9.20;2.50;;;;;;;;;;5055080;28;20476;-83
2022/02/20 12:16:23;;;;;;;8.80;2.83;;;;;;;;;;5055583;28;20488;-82
2022/02/20 12:19:10;;;;;;;9.90;3.03;;;;;;;;;;5057034;28;20460;-82
2022/02/20 12:21:50;;;;;;;5.43;2.73;;;;;;;;;;5059906;28;20509;-82
2022/02/20 12:24:18;;;;;;;8.40;2.50;;;;;;;;;;5058895;28;20442;-84
2022/02/20 12:26:47;;;;;;;9.67;2.47;;;;;;;;;;5059142;28;20525;-82
2022/02/20 12:29:18;;;;;;;7.40;2.40;;;;;;;;;;5059079;28;20473;-84
2022/02/20 12:32:06;;;;;;;8.70;2.60;;;;;;;;;;5058929;28;20492;-84
2022/02/20 12:34:55;;;;;;;11.87;2.50;;;;;;;;;;5058564;28;20455;-83
2022/02/20 12:37:24;;;;;;;5.90;2.20;;;;;;;;;;5059051;28;20476;-84
2022/02/20 12:39:55;;;;;;;8.17;2.67;;;;;;;;;;5058817;28;20545;-84
2022/02/20 12:42:27;;;;;;;12.17;2.70;;;;;;;;;;5058438;28;21008;-82
2022/02/20 12:45:00;;;;;;;8.87;4.13;;;;;;;;;;5058061;28;20446;-82
2022/02/20 12:47:33;;;;;;;6.77;2.30;;;;;;;;;;5060656;28;20476;-82
2022/02/20 12:50:01;;;;;;;7.03;2.20;;;;;;;;;;5057866;28;20450;-82
2022/02/20 12:52:32;;;;;;;7.27;2.73;;;;;;;;;;5058781;28;20455;-82
2022/02/20 12:55:02;;;;;;;8.50;3.63;;;;;;;;;;5059509;28;20457;-84
2022/02/20 12:57:36;;;;;;;9.50;2.43;;;;;;;;;;5060653;28;20508;-84
2022/02/20 13:00:05;;;;;;;8.63;1.93;;;;;;;;;;5049264;28;20513;-85
2022/02/20 13:02:36;;;;;;;9.43;2.67;;;;;;;;;;5056340;28;20485;-82
2022/02/20 13:05:07;;;;;;;8.87;2.53;;;;;;;;;;5060099;28;20453;-84
2022/02/20 13:07:41;;;;;;;7.60;2.77;;;;;;;;;;5061797;28;20865;-84
2022/02/20 13:10:09;;;;;;;6.57;2.73;;;;;;;;;;5054121;28;20533;-82
2022/02/20 13:12:36;;;;;;;13.33;3.70;;;;;;;;;;5056473;28;20501;-83
2022/02/20 13:15:05;;;;;;;7.93;2.10;;;;;;;;;;5055084;28;20530;-83
2022/02/20 13:17:48;;;;;;;7.50;2.27;;;;;;;;;;5055566;28;20519;-84
2022/02/20 13:20:30;;;;;;;6.57;2.30;;;;;;;;;;5056672;28;20453;-84
2022/02/20 13:22:57;;;;;;;11.43;3.07;;;;;;;;;;5058848;28;20489;-80
2022/02/20 13:25:25;;;;;;;5.27;2.07;;;;;;;;;;5065065;28;20458;-81
2022/02/20 13:27:59;;;;;;;14.13;2.70;;;;;;;;;;5053840;28;20540;-84
2022/02/20 13:30:27;;;;;;;11.40;2.60;;;;;;;;;;5069098;28;20445;-80
2022/02/20 13:32:54;;;;;;;7.43;2.13;;;;;;;;;;5059872;28;20457;-81
2022/02/20 13:35:36;;;;;;;13.25;3.20;;;;;;;;;;5070651;28;20442;-82
2022/02/20 13:38:05;;;;;;;5.37;2.00;;;;;;;;;;5063568;28;20210;-84
2022/02/20 13:40:36;;;;;;;13.77;3.20;;;;;;;;;;5070152;28;20446;-82
2022/02/20 13:43:04;;;;;;;12.40;2.70;;;;;;;;;;5069511;28;20882;-83
2022/02/20 13:45:34;;;;;;;11.87;3.20;;;;;;;;;;5069709;28;20454;-85
2022/02/20 13:48:02;;;;;;;9.90;2.53;;;;;;;;;;5068963;28;20863;-83
2022/02/20 13:50:29;;;;;;;16.20;5.10;;;;;;;;;;5065229;28;20532;-86
2022/02/20 13:52:57;;;;;;;9.40;2.63;;;;;;;;;;5062802;28;20477;-84
2022/02/20 13:55:27;;;;;;;10.90;3.00;;;;;;;;;;5061538;28;20524;-84
2022/02/20 13:57:55;;;;;;;11.00;3.10;;;;;;;;;;5071431;28;20449;-85
2022/02/20 14:00:23;;;;;;;9.90;3.50;;;;;;;;;;5084059;28;20970;-84
2022/02/20 14:02:50;;;;;;;11.43;3.53;;;;;;;;;;5085212;28;20515;-84
2022/02/20 14:05:23;;;;;;;9.83;3.27;;;;;;;;;;5083329;28;20497;-84
2022/02/20 14:07:50;;;;;;;10.90;2.87;;;;;;;;;;5083213;28;20455;-85
2022/02/20 14:10:17;;;;;;;16.37;3.60;;;;;;;;;;5068260;28;20509;-83
2022/02/20 14:12:46;;;;;;;8.20;3.30;;;;;;;;;;5080455;28;20540;-80
2022/02/20 14:15:14;;;;;;;13.77;3.07;;;;;;;;;;5083422;28;20447;-80
2022/02/20 14:17:49;;;;;;;14.57;4.27;;;;;;;;;;5055649;28;20573;-83
2022/02/20 14:20:16;;;;;;;7.57;2.80;;;;;;;;;;5084090;28;20460;-81
2022/02/20 14:22:44;;;;;;;13.73;3.73;;;;;;;;;;5073418;28;20490;-82
2022/02/20 14:25:12;;;;;;;12.53;3.77;;;;;;;;;;5067042;28;20453;-81
2022/02/20 14:27:42;;;;;;;12.73;2.50;;;;;;;;;;5075997;28;20461;-81
2022/02/20 14:30:12;;;;;;;11.67;2.60;;;;;;;;;;5067965;28;20461;-79
2022/02/20 14:32:39;;;;;;;10.63;2.60;;;;;;;;;;5072275;28;20444;-82
2022/02/20 14:35:18;;;;;;;11.70;2.60;;;;;;;;;;5066348;28;20450;-82
2022/02/20 14:37:45;;;;;;;9.10;2.63;;;;;;;;;;5065132;28;20453;-78
2022/02/20 14:40:13;;;;;;;11.90;3.10;;;;;;;;;;5060626;28;20490;-79
2022/02/20 14:42:40;;;;;;;12.70;3.03;;;;;;;;;;5060825;28;20483;-80
2022/02/20 14:45:07;;;;;;;16.27;3.47;;;;;;;;;;5065010;28;20464;-81
2022/02/20 14:47:36;;;;;;;9.93;3.60;;;;;;;;;;5062276;28;20491;-79